< < Back
Terminal Aerodrome Forecast


Current Version              Previous Versions:   1  2  3  4  5  6  7  8  9  

Terminal Aerodrome Forecast

589
FTUS44 KBMX 181100
TAFANB
TAF
KANB 181127Z 1812/1912 VRB04KT P6SM BKN080
     FM190000 00000KT P6SM SCT100 BKN250=

Latest METAR

650
SAUS70 KWBC 181100
MTRANB
METAR KANB 181053Z AUTO 24004KT 8SM CLR M01/M02 A3021 RMK AO2 SLP239
T10061017


USA.gov is the U.S. government's official web portal to all federal, state and local government web resources and services.